sensor_id;sensor_type;location;lat;lon;timestamp;pressure;altitude;pressure_sealevel;temperature
40045;BMP280;25735;48.122;11.422;2023-02-04T00:01:23;96129.56;;;4.94
40045;BMP280;25735;48.122;11.422;2023-02-04T00:03:48;96148.81;;;4.92
40045;BMP280;25735;48.122;11.422;2023-02-04T00:06:13;96143.44;;;4.92
40045;BMP280;25735;48.122;11.422;2023-02-04T00:08:38;96139.63;;;4.90
40045;BMP280;25735;48.122;11.422;2023-02-04T00:11:04;96129.56;;;4.94
40045;BMP280;25735;48.122;11.422;2023-02-04T00:13:29;96143.78;;;4.94
40045;BMP280;25735;48.122;11.422;2023-02-04T00:15:54;96151.50;;;4.92
40045;BMP280;25735;48.122;11.422;2023-02-04T00:18:19;96157.13;;;4.82
40045;BMP280;25735;48.122;11.422;2023-02-04T00:20:45;96154.34;;;4.85
40045;BMP280;25735;48.122;11.422;2023-02-04T00:23:10;96150.91;;;4.85
40045;BMP280;25735;48.122;11.422;2023-02-04T00:25:36;96151.59;;;4.89
40045;BMP280;25735;48.122;11.422;2023-02-04T00:28:01;96161.69;;;4.85
40045;BMP280;25735;48.122;11.422;2023-02-04T00:30:26;96146.00;;;4.80
40045;BMP280;25735;48.122;11.422;2023-02-04T00:32:52;96161.00;;;4.81
40045;BMP280;25735;48.122;11.422;2023-02-04T00:35:19;96156.22;;;4.88
40045;BMP280;25735;48.122;11.422;2023-02-04T00:37:44;96155.59;;;4.81
40045;BMP280;25735;48.122;11.422;2023-02-04T00:40:10;96169.31;;;4.86
40045;BMP280;25735;48.122;11.422;2023-02-04T00:42:36;96164.78;;;4.64
40045;BMP280;25735;48.122;11.422;2023-02-04T00:45:01;96168.25;;;4.84
40045;BMP280;25735;48.122;11.422;2023-02-04T00:47:27;96168.66;;;4.82
40045;BMP280;25735;48.122;11.422;2023-02-04T00:49:52;96168.72;;;4.79
40045;BMP280;25735;48.122;11.422;2023-02-04T00:52:17;96163.25;;;4.82
40045;BMP280;25735;48.122;11.422;2023-02-04T00:54:42;96163.75;;;4.77
40045;BMP280;25735;48.122;11.422;2023-02-04T00:57:08;96157.88;;;4.82
40045;BMP280;25735;48.122;11.422;2023-02-04T00:59:33;96169.59;;;4.73
40045;BMP280;25735;48.122;11.422;2023-02-04T01:01:58;96179.84;;;4.81
40045;BMP280;25735;48.122;11.422;2023-02-04T01:04:24;96183.75;;;4.76
40045;BMP280;25735;48.122;11.422;2023-02-04T01:06:50;96198.25;;;4.82
40045;BMP280;25735;48.122;11.422;2023-02-04T01:09:15;96200.41;;;4.91
40045;BMP280;25735;48.122;11.422;2023-02-04T01:11:48;96194.31;;;5.06
40045;BMP280;25735;48.122;11.422;2023-02-04T01:14:14;96210.69;;;4.96
40045;BMP280;25735;48.122;11.422;2023-02-04T01:16:39;96212.63;;;4.95
40045;BMP280;25735;48.122;11.422;2023-02-04T01:19:05;96206.28;;;5.05
40045;BMP280;25735;48.122;11.422;2023-02-04T01:21:30;96214.03;;;5.03
40045;BMP280;25735;48.122;11.422;2023-02-04T01:23:55;96218.16;;;5.07
40045;BMP280;25735;48.122;11.422;2023-02-04T01:26:20;96211.13;;;4.94
40045;BMP280;25735;48.122;11.422;2023-02-04T01:28:46;96225.06;;;4.89
40045;BMP280;25735;48.122;11.422;2023-02-04T01:31:11;96221.81;;;4.98
40045;BMP280;25735;48.122;11.422;2023-02-04T01:33:37;96204.19;;;4.93
40045;BMP280;25735;48.122;11.422;2023-02-04T01:36:02;96196.75;;;4.81
40045;BMP280;25735;48.122;11.422;2023-02-04T01:38:27;96206.69;;;4.84
40045;BMP280;25735;48.122;11.422;2023-02-04T01:40:53;96203.25;;;4.84
40045;BMP280;25735;48.122;11.422;2023-02-04T01:43:18;96195.94;;;4.84
40045;BMP280;25735;48.122;11.422;2023-02-04T01:45:47;96218.38;;;4.78
40045;BMP280;25735;48.122;11.422;2023-02-04T01:48:12;96222.84;;;4.84
40045;BMP280;25735;48.122;11.422;2023-02-04T01:50:45;96232.38;;;4.89
40045;BMP280;25735;48.122;11.422;2023-02-04T01:53:10;96240.81;;;4.91
40045;BMP280;25735;48.122;11.422;2023-02-04T01:55:35;96232.75;;;5.10
40045;BMP280;25735;48.122;11.422;2023-02-04T01:58:00;96233.75;;;5.16
40045;BMP280;25735;48.122;11.422;2023-02-04T02:00:31;96233.81;;;5.32
40045;BMP280;25735;48.122;11.422;2023-02-04T02:02:57;96238.38;;;5.34
40045;BMP280;25735;48.122;11.422;2023-02-04T02:05:27;96236.56;;;5.47
40045;BMP280;25735;48.122;11.422;2023-02-04T02:07:55;96234.31;;;5.46
40045;BMP280;25735;48.122;11.422;2023-02-04T02:10:22;96233.94;;;5.44
40045;BMP280;25735;48.122;11.422;2023-02-04T02:12:48;96236.88;;;5.33
40045;BMP280;25735;48.122;11.422;2023-02-04T02:15:14;96240.31;;;5.53
40045;BMP280;25735;48.122;11.422;2023-02-04T02:17:40;96250.06;;;5.47
40045;BMP280;25735;48.122;11.422;2023-02-04T02:20:07;96249.00;;;5.60
40045;BMP280;25735;48.122;11.422;2023-02-04T02:22:48;96252.78;;;5.63
40045;BMP280;25735;48.122;11.422;2023-02-04T02:25:15;96258.19;;;5.63
40045;BMP280;25735;48.122;11.422;2023-02-04T02:27:40;96252.44;;;5.61
40045;BMP280;25735;48.122;11.422;2023-02-04T02:30:07;96272.66;;;5.53
40045;BMP280;25735;48.122;11.422;2023-02-04T02:32:34;96277.63;;;5.55
40045;BMP280;25735;48.122;11.422;2023-02-04T02:34:59;96271.66;;;5.63
40045;BMP280;25735;48.122;11.422;2023-02-04T02:37:24;96283.09;;;5.51
40045;BMP280;25735;48.122;11.422;2023-02-04T02:39:50;96280.22;;;5.58
40045;BMP280;25735;48.122;11.422;2023-02-04T02:42:16;96275.94;;;5.60
40045;BMP280;25735;48.122;11.422;2023-02-04T02:44:43;96279.91;;;5.56
40045;BMP280;25735;48.122;11.422;2023-02-04T02:47:13;96275.88;;;5.64
40045;BMP280;25735;48.122;11.422;2023-02-04T02:49:40;96278.31;;;5.59
40045;BMP280;25735;48.122;11.422;2023-02-04T02:52:09;96262.91;;;5.59
40045;BMP280;25735;48.122;11.422;2023-02-04T02:54:35;96275.81;;;5.48
40045;BMP280;25735;48.122;11.422;2023-02-04T02:57:00;96278.41;;;5.55
40045;BMP280;25735;48.122;11.422;2023-02-04T02:59:26;96288.47;;;5.51
40045;BMP280;25735;48.122;11.422;2023-02-04T03:01:57;96278.41;;;5.55
40045;BMP280;25735;48.122;11.422;2023-02-04T03:04:25;96288.69;;;5.60
40045;BMP280;25735;48.122;11.422;2023-02-04T03:06:51;96297.06;;;5.46
40045;BMP280;25735;48.122;11.422;2023-02-04T03:09:17;96302.38;;;5.50
40045;BMP280;25735;48.122;11.422;2023-02-04T03:11:43;96305.47;;;5.67
40045;BMP280;25735;48.122;11.422;2023-02-04T03:14:08;96309.78;;;5.65
40045;BMP280;25735;48.122;11.422;2023-02-04T03:16:34;96311.16;;;5.73
40045;BMP280;25735;48.122;11.422;2023-02-04T03:19:02;96315.28;;;5.58
40045;BMP280;25735;48.122;11.422;2023-02-04T03:21:29;96316.00;;;5.62
40045;BMP280;25735;48.122;11.422;2023-02-04T03:23:55;96316.63;;;5.50
40045;BMP280;25735;48.122;11.422;2023-02-04T03:26:24;96327.91;;;5.45
40045;BMP280;25735;48.122;11.422;2023-02-04T03:28:52;96324.50;;;5.41
40045;BMP280;25735;48.122;11.422;2023-02-04T03:31:17;96329.88;;;5.41
40045;BMP280;25735;48.122;11.422;2023-02-04T03:33:42;96337.00;;;5.32
40045;BMP280;25735;48.122;11.422;2023-02-04T03:36:08;96332.63;;;5.19
40045;BMP280;25735;48.122;11.422;2023-02-04T03:38:33;96337.63;;;5.20
40045;BMP280;25735;48.122;11.422;2023-02-04T03:40:59;96334.63;;;5.15
40045;BMP280;25735;48.122;11.422;2023-02-04T03:43:24;96331.59;;;5.13
40045;BMP280;25735;48.122;11.422;2023-02-04T03:45:49;96345.47;;;5.11
40045;BMP280;25735;48.122;11.422;2023-02-04T03:48:15;96341.66;;;5.09
40045;BMP280;25735;48.122;11.422;2023-02-04T03:50:40;96346.91;;;5.16
40045;BMP280;25735;48.122;11.422;2023-02-04T03:53:05;96353.63;;;5.08
40045;BMP280;25735;48.122;11.422;2023-02-04T03:55:31;96355.44;;;4.92
40045;BMP280;25735;48.122;11.422;2023-02-04T03:57:57;96361.59;;;4.92
40045;BMP280;25735;48.122;11.422;2023-02-04T04:00:22;96383.56;;;4.91
40045;BMP280;25735;48.122;11.422;2023-02-04T04:02:47;96383.13;;;4.92
40045;BMP280;25735;48.122;11.422;2023-02-04T04:05:13;96382.06;;;4.86
40045;BMP280;25735;48.122;11.422;2023-02-04T04:07:38;96382.88;;;4.87
40045;BMP280;25735;48.122;11.422;2023-02-04T04:10:03;96385.38;;;4.75
40045;BMP280;25735;48.122;11.422;2023-02-04T04:12:29;96397.00;;;4.68
40045;BMP280;25735;48.122;11.422;2023-02-04T04:14:54;96387.94;;;4.59
40045;BMP280;25735;48.122;11.422;2023-02-04T04:17:19;96401.06;;;4.53
40045;BMP280;25735;48.122;11.422;2023-02-04T04:19:45;96406.81;;;4.55
40045;BMP280;25735;48.122;11.422;2023-02-04T04:22:10;96408.88;;;4.48
40045;BMP280;25735;48.122;11.422;2023-02-04T04:24:35;96408.88;;;4.45
40045;BMP280;25735;48.122;11.422;2023-02-04T04:27:01;96410.81;;;4.44
40045;BMP280;25735;48.122;11.422;2023-02-04T04:29:26;96409.41;;;4.36
40045;BMP280;25735;48.122;11.422;2023-02-04T04:31:51;96404.41;;;4.35
40045;BMP280;25735;48.122;11.422;2023-02-04T04:34:16;96409.84;;;4.31
40045;BMP280;25735;48.122;11.422;2023-02-04T04:36:42;96411.50;;;4.25
40045;BMP280;25735;48.122;11.422;2023-02-04T04:39:07;96418.34;;;4.30
40045;BMP280;25735;48.122;11.422;2023-02-04T04:41:32;96416.25;;;4.15
40045;BMP280;25735;48.122;11.422;2023-02-04T04:43:57;96414.53;;;4.27
40045;BMP280;25735;48.122;11.422;2023-02-04T04:46:23;96431.81;;;4.30
40045;BMP280;25735;48.122;11.422;2023-02-04T04:48:48;96429.03;;;4.07
40045;BMP280;25735;48.122;11.422;2023-02-04T04:51:13;96436.25;;;4.14
40045;BMP280;25735;48.122;11.422;2023-02-04T04:53:38;96444.38;;;4.10
40045;BMP280;25735;48.122;11.422;2023-02-04T04:56:04;96438.56;;;4.12
40045;BMP280;25735;48.122;11.422;2023-02-04T04:58:29;96439.84;;;4.04
40045;BMP280;25735;48.122;11.422;2023-02-04T05:00:54;96436.47;;;3.96
40045;BMP280;25735;48.122;11.422;2023-02-04T05:03:19;96441.91;;;3.93
40045;BMP280;25735;48.122;11.422;2023-02-04T05:05:45;96454.94;;;3.94
40045;BMP280;25735;48.122;11.422;2023-02-04T05:08:10;96443.03;;;3.92
40045;BMP280;25735;48.122;11.422;2023-02-04T05:10:39;96459.09;;;3.99
40045;BMP280;25735;48.122;11.422;2023-02-04T05:13:04;96459.88;;;3.99
40045;BMP280;25735;48.122;11.422;2023-02-04T05:15:29;96466.50;;;3.92
40045;BMP280;25735;48.122;11.422;2023-02-04T05:17:54;96459.97;;;3.89
40045;BMP280;25735;48.122;11.422;2023-02-04T05:20:20;96451.16;;;3.89
40045;BMP280;25735;48.122;11.422;2023-02-04T05:22:45;96471.81;;;3.95
40045;BMP280;25735;48.122;11.422;2023-02-04T05:25:10;96469.53;;;3.93
40045;BMP280;25735;48.122;11.422;2023-02-04T05:27:36;96468.00;;;3.96
40045;BMP280;25735;48.122;11.422;2023-02-04T05:30:01;96466.34;;;4.02
40045;BMP280;25735;48.122;11.422;2023-02-04T05:32:26;96472.81;;;4.08
40045;BMP280;25735;48.122;11.422;2023-02-04T05:34:51;96468.00;;;3.92
40045;BMP280;25735;48.122;11.422;2023-02-04T05:37:16;96474.88;;;3.97
40045;BMP280;25735;48.122;11.422;2023-02-04T05:39:45;96483.28;;;3.99
40045;BMP280;25735;48.122;11.422;2023-02-04T05:42:10;96472.00;;;3.81
40045;BMP280;25735;48.122;11.422;2023-02-04T05:44:35;96478.53;;;3.80
40045;BMP280;25735;48.122;11.422;2023-02-04T05:47:00;96479.25;;;3.84
40045;BMP280;25735;48.122;11.422;2023-02-04T05:49:25;96492.38;;;3.79
40045;BMP280;25735;48.122;11.422;2023-02-04T05:51:51;96499.97;;;3.87
40045;BMP280;25735;48.122;11.422;2023-02-04T05:54:16;96504.19;;;3.88
40045;BMP280;25735;48.122;11.422;2023-02-04T05:56:45;96502.25;;;3.89
40045;BMP280;25735;48.122;11.422;2023-02-04T05:59:10;96520.72;;;3.87
40045;BMP280;25735;48.122;11.422;2023-02-04T06:01:36;96532.59;;;3.89
40045;BMP280;25735;48.122;11.422;2023-02-04T06:04:01;96531.09;;;3.85
40045;BMP280;25735;48.122;11.422;2023-02-04T06:06:26;96540.38;;;3.80
40045;BMP280;25735;48.122;11.422;2023-02-04T06:08:51;96549.38;;;3.60
40045;BMP280;25735;48.122;11.422;2023-02-04T06:11:17;96541.66;;;3.65
40045;BMP280;25735;48.122;11.422;2023-02-04T06:13:42;96550.53;;;3.63
40045;BMP280;25735;48.122;11.422;2023-02-04T06:16:07;96553.41;;;3.82
40045;BMP280;25735;48.122;11.422;2023-02-04T06:18:32;96555.75;;;3.76
40045;BMP280;25735;48.122;11.422;2023-02-04T06:20:58;96555.06;;;3.69
40045;BMP280;25735;48.122;11.422;2023-02-04T06:23:23;96567.72;;;3.72
40045;BMP280;25735;48.122;11.422;2023-02-04T06:25:48;96564.31;;;3.68
40045;BMP280;25735;48.122;11.422;2023-02-04T06:28:14;96575.09;;;3.64
40045;BMP280;25735;48.122;11.422;2023-02-04T06:30:39;96570.75;;;3.77
40045;BMP280;25735;48.122;11.422;2023-02-04T06:33:04;96576.47;;;3.79
40045;BMP280;25735;48.122;11.422;2023-02-04T06:35:30;96581.25;;;3.62
40045;BMP280;25735;48.122;11.422;2023-02-04T06:37:55;96583.88;;;3.68
40045;BMP280;25735;48.122;11.422;2023-02-04T06:40:20;96588.47;;;3.71
40045;BMP280;25735;48.122;11.422;2023-02-04T06:42:45;96587.38;;;3.65
40045;BMP280;25735;48.122;11.422;2023-02-04T06:45:11;96588.09;;;3.69
40045;BMP280;25735;48.122;11.422;2023-02-04T06:47:36;96581.47;;;3.81
40045;BMP280;25735;48.122;11.422;2023-02-04T06:50:01;96587.69;;;3.74
40045;BMP280;25735;48.122;11.422;2023-02-04T06:52:26;96589.19;;;3.75
40045;BMP280;25735;48.122;11.422;2023-02-04T06:54:52;96593.84;;;3.71
40045;BMP280;25735;48.122;11.422;2023-02-04T06:57:17;96597.19;;;3.82
40045;BMP280;25735;48.122;11.422;2023-02-04T06:59:42;96597.25;;;3.75
40045;BMP280;25735;48.122;11.422;2023-02-04T07:02:09;96604.59;;;3.71
40045;BMP280;25735;48.122;11.422;2023-02-04T07:04:35;96596.09;;;3.76
40045;BMP280;25735;48.122;11.422;2023-02-04T07:07:00;96608.00;;;3.75
40045;BMP280;25735;48.122;11.422;2023-02-04T07:09:25;96603.25;;;3.93
40045;BMP280;25735;48.122;11.422;2023-02-04T07:11:51;96600.19;;;3.91
40045;BMP280;25735;48.122;11.422;2023-02-04T07:14:16;96613.66;;;3.88
40045;BMP280;25735;48.122;11.422;2023-02-04T07:16:43;96621.63;;;3.98
40045;BMP280;25735;48.122;11.422;2023-02-04T07:19:08;96619.66;;;4.02
40045;BMP280;25735;48.122;11.422;2023-02-04T07:21:33;96624.69;;;4.00
40045;BMP280;25735;48.122;11.422;2023-02-04T07:23:59;96621.63;;;3.98
40045;BMP280;25735;48.122;11.422;2023-02-04T07:26:24;96638.59;;;3.92
40045;BMP280;25735;48.122;11.422;2023-02-04T07:28:49;96627.41;;;4.00
40045;BMP280;25735;48.122;11.422;2023-02-04T07:31:15;96651.09;;;4.12
40045;BMP280;25735;48.122;11.422;2023-02-04T07:33:40;96639.56;;;4.11
40045;BMP280;25735;48.122;11.422;2023-02-04T07:36:06;96649.19;;;4.09
40045;BMP280;25735;48.122;11.422;2023-02-04T07:38:31;96646.03;;;4.17
40045;BMP280;25735;48.122;11.422;2023-02-04T07:40:56;96658.75;;;4.17
40045;BMP280;25735;48.122;11.422;2023-02-04T07:43:22;96656.78;;;4.20
40045;BMP280;25735;48.122;11.422;2023-02-04T07:45:47;96661.41;;;4.20
40045;BMP280;25735;48.122;11.422;2023-02-04T07:48:12;96665.16;;;4.29
40045;BMP280;25735;48.122;11.422;2023-02-04T07:50:37;96672.13;;;4.23
40045;BMP280;25735;48.122;11.422;2023-02-04T07:53:03;96678.63;;;4.26
40045;BMP280;25735;48.122;11.422;2023-02-04T07:55:28;96678.47;;;4.43
40045;BMP280;25735;48.122;11.422;2023-02-04T07:57:54;96661.97;;;4.38
40045;BMP280;25735;48.122;11.422;2023-02-04T08:00:19;96674.31;;;4.35
40045;BMP280;25735;48.122;11.422;2023-02-04T08:02:45;96673.47;;;4.42
40045;BMP280;25735;48.122;11.422;2023-02-04T08:05:10;96677.66;;;4.46
40045;BMP280;25735;48.122;11.422;2023-02-04T08:07:36;96670.94;;;4.61
40045;BMP280;25735;48.122;11.422;2023-02-04T08:10:02;96665.88;;;4.66
40045;BMP280;25735;48.122;11.422;2023-02-04T08:12:28;96666.66;;;4.67
40045;BMP280;25735;48.122;11.422;2023-02-04T08:14:53;96677.00;;;4.72
40045;BMP280;25735;48.122;11.422;2023-02-04T08:17:18;96672.31;;;4.76
40045;BMP280;25735;48.122;11.422;2023-02-04T08:19:43;96674.69;;;4.70
40045;BMP280;25735;48.122;11.422;2023-02-04T08:22:09;96689.19;;;4.79
40045;BMP280;25735;48.122;11.422;2023-02-04T08:24:35;96690.03;;;4.73
40045;BMP280;25735;48.122;11.422;2023-02-04T08:27:00;96697.63;;;4.85
40045;BMP280;25735;48.122;11.422;2023-02-04T08:29:26;96688.41;;;4.82
40045;BMP280;25735;48.122;11.422;2023-02-04T08:31:51;96686.78;;;4.88
40045;BMP280;25735;48.122;11.422;2023-02-04T08:34:16;96675.66;;;4.86
40045;BMP280;25735;48.122;11.422;2023-02-04T08:36:41;96673.69;;;4.90
40045;BMP280;25735;48.122;11.422;2023-02-04T08:39:08;96698.31;;;4.89
40045;BMP280;25735;48.122;11.422;2023-02-04T08:41:34;96699.97;;;4.79
40045;BMP280;25735;48.122;11.422;2023-02-04T08:43:59;96693.94;;;5.02
40045;BMP280;25735;48.122;11.422;2023-02-04T08:46:24;96708.97;;;4.99
40045;BMP280;25735;48.122;11.422;2023-02-04T08:48:49;96703.81;;;5.11
40045;BMP280;25735;48.122;11.422;2023-02-04T08:51:15;96716.72;;;4.97
40045;BMP280;25735;48.122;11.422;2023-02-04T08:53:41;96711.16;;;5.11
40045;BMP280;25735;48.122;11.422;2023-02-04T08:56:06;96711.72;;;5.25
40045;BMP280;25735;48.122;11.422;2023-02-04T08:58:33;96714.16;;;5.16
40045;BMP280;25735;48.122;11.422;2023-02-04T09:00:58;96707.22;;;5.15
40045;BMP280;25735;48.122;11.422;2023-02-04T09:03:23;96730.63;;;5.22
40045;BMP280;25735;48.122;11.422;2023-02-04T09:05:48;96723.88;;;5.10
40045;BMP280;25735;48.122;11.422;2023-02-04T09:08:13;96736.53;;;5.13
40045;BMP280;25735;48.122;11.422;2023-02-04T09:10:39;96732.25;;;5.16
40045;BMP280;25735;48.122;11.422;2023-02-04T09:13:05;96738.81;;;5.15
40045;BMP280;25735;48.122;11.422;2023-02-04T09:15:33;96734.94;;;5.16
40045;BMP280;25735;48.122;11.422;2023-02-04T09:17:58;96740.00;;;5.43
40045;BMP280;25735;48.122;11.422;2023-02-04T09:20:35;96741.16;;;5.42
40045;BMP280;25735;48.122;11.422;2023-02-04T09:23:01;96728.22;;;5.31
40045;BMP280;25735;48.122;11.422;2023-02-04T09:25:26;96742.69;;;5.43
40045;BMP280;25735;48.122;11.422;2023-02-04T09:27:51;96737.16;;;5.54
40045;BMP280;25735;48.122;11.422;2023-02-04T09:30:16;96736.94;;;5.41
40045;BMP280;25735;48.122;11.422;2023-02-04T09:32:42;96746.03;;;5.21
40045;BMP280;25735;48.122;11.422;2023-02-04T09:35:07;96754.13;;;5.21
40045;BMP280;25735;48.122;11.422;2023-02-04T09:37:32;96747.94;;;5.24
40045;BMP280;25735;48.122;11.422;2023-02-04T09:39:57;96752.53;;;5.27
40045;BMP280;25735;48.122;11.422;2023-02-04T09:42:24;96747.47;;;5.32
40045;BMP280;25735;48.122;11.422;2023-02-04T09:44:50;96759.47;;;5.54
40045;BMP280;25735;48.122;11.422;2023-02-04T09:47:17;96767.41;;;5.64
40045;BMP280;25735;48.122;11.422;2023-02-04T09:49:44;96769.59;;;5.47
40045;BMP280;25735;48.122;11.422;2023-02-04T09:52:14;96766.84;;;5.50
40045;BMP280;25735;48.122;11.422;2023-02-04T09:54:41;96776.97;;;5.43
40045;BMP280;25735;48.122;11.422;2023-02-04T09:57:14;96761.69;;;5.62
40045;BMP280;25735;48.122;11.422;2023-02-04T09:59:39;96773.19;;;5.66
40045;BMP280;25735;48.122;11.422;2023-02-04T10:02:18;96763.69;;;5.59
40045;BMP280;25735;48.122;11.422;2023-02-04T10:04:44;96763.84;;;5.74
40045;BMP280;25735;48.122;11.422;2023-02-04T10:07:11;96764.38;;;5.62
40045;BMP280;25735;48.122;11.422;2023-02-04T10:09:38;96769.69;;;5.69
40045;BMP280;25735;48.122;11.422;2023-02-04T10:12:05;96771.72;;;5.91
40045;BMP280;25735;48.122;11.422;2023-02-04T10:14:30;96774.69;;;6.23
40045;BMP280;25735;48.122;11.422;2023-02-04T10:16:57;96775.06;;;6.47
40045;BMP280;25735;48.122;11.422;2023-02-04T10:19:26;96783.03;;;6.32
40045;BMP280;25735;48.122;11.422;2023-02-04T10:21:52;96779.63;;;6.28
40045;BMP280;25735;48.122;11.422;2023-02-04T10:24:22;96778.81;;;6.76
40045;BMP280;25735;48.122;11.422;2023-02-04T10:26:52;96779.56;;;6.31
40045;BMP280;25735;48.122;11.422;2023-02-04T10:29:20;96780.00;;;6.30
40045;BMP280;25735;48.122;11.422;2023-02-04T10:31:49;96775.28;;;6.11
40045;BMP280;25735;48.122;11.422;2023-02-04T10:34:22;96780.50;;;6.21
40045;BMP280;25735;48.122;11.422;2023-02-04T10:36:50;96773.06;;;6.51
40045;BMP280;25735;48.122;11.422;2023-02-04T10:39:23;96761.91;;;6.72
40045;BMP280;25735;48.122;11.422;2023-02-04T10:41:51;96772.81;;;6.65
40045;BMP280;25735;48.122;11.422;2023-02-04T10:46:57;96772.31;;;6.51
40045;BMP280;25735;48.122;11.422;2023-02-04T10:49:23;96773.81;;;6.29
40045;BMP280;25735;48.122;11.422;2023-02-04T10:51:50;96763.25;;;6.38
40045;BMP280;25735;48.122;11.422;2023-02-04T10:54:18;96775.41;;;6.95
40045;BMP280;25735;48.122;11.422;2023-02-04T10:57:03;96769.66;;;6.70
40045;BMP280;25735;48.122;11.422;2023-02-04T10:59:29;96777.00;;;6.47
40045;BMP280;25735;48.122;11.422;2023-02-04T11:01:56;96780.81;;;6.49
40045;BMP280;25735;48.122;11.422;2023-02-04T11:04:22;96778.53;;;6.48
40045;BMP280;25735;48.122;11.422;2023-02-04T11:06:49;96784.91;;;6.57
40045;BMP280;25735;48.122;11.422;2023-02-04T11:09:14;96774.94;;;6.77
40045;BMP280;25735;48.122;11.422;2023-02-04T11:11:47;96768.75;;;7.18
40045;BMP280;25735;48.122;11.422;2023-02-04T11:14:25;96765.06;;;7.82
40045;BMP280;25735;48.122;11.422;2023-02-04T11:16:52;96764.72;;;7.26
40045;BMP280;25735;48.122;11.422;2023-02-04T11:19:30;96787.09;;;7.07
40045;BMP280;25735;48.122;11.422;2023-02-04T11:22:05;96775.19;;;6.63
40045;BMP280;25735;48.122;11.422;2023-02-04T11:24:34;96771.41;;;6.80
40045;BMP280;25735;48.122;11.422;2023-02-04T11:27:16;96772.13;;;6.39
40045;BMP280;25735;48.122;11.422;2023-02-04T11:29:43;96772.66;;;6.30
40045;BMP280;25735;48.122;11.422;2023-02-04T11:39:59;96787.63;;;5.53
40045;BMP280;25735;48.122;11.422;2023-02-04T11:42:31;96797.38;;;5.73
40045;BMP280;25735;48.122;11.422;2023-02-04T11:45:20;96800.97;;;5.93
40045;BMP280;25735;48.122;11.422;2023-02-04T11:47:49;96788.38;;;6.35
40045;BMP280;25735;48.122;11.422;2023-02-04T11:50:22;96782.06;;;6.19
40045;BMP280;25735;48.122;11.422;2023-02-04T11:52:49;96793.94;;;6.25
40045;BMP280;25735;48.122;11.422;2023-02-04T11:55:15;96791.00;;;5.90
40045;BMP280;25735;48.122;11.422;2023-02-04T11:57:42;96790.31;;;5.83
40045;BMP280;25735;48.122;11.422;2023-02-04T12:00:16;96790.59;;;5.62
40045;BMP280;25735;48.122;11.422;2023-02-04T12:03:03;96776.69;;;5.63
40045;BMP280;25735;48.122;11.422;2023-02-04T12:08:23;96793.31;;;5.29
40045;BMP280;25735;48.122;11.422;2023-02-04T12:11:11;96781.38;;;5.30
40045;BMP280;25735;48.122;11.422;2023-02-04T12:13:52;96792.22;;;5.56
40045;BMP280;25735;48.122;11.422;2023-02-04T12:16:18;96795.16;;;5.35
40045;BMP280;25735;48.122;11.422;2023-02-04T12:18:43;96783.66;;;5.61
40045;BMP280;25735;48.122;11.422;2023-02-04T12:21:09;96787.63;;;6.35
40045;BMP280;25735;48.122;11.422;2023-02-04T12:23:34;96779.38;;;6.87
40045;BMP280;25735;48.122;11.422;2023-02-04T12:25:59;96778.03;;;7.90
40045;BMP280;25735;48.122;11.422;2023-02-04T12:28:25;96773.13;;;8.36
40045;BMP280;25735;48.122;11.422;2023-02-04T12:30:52;96771.97;;;8.21
40045;BMP280;25735;48.122;11.422;2023-02-04T12:33:17;96780.72;;;8.10
40045;BMP280;25735;48.122;11.422;2023-02-04T12:35:42;96789.09;;;7.80
40045;BMP280;25735;48.122;11.422;2023-02-04T12:38:07;96787.63;;;6.57
40045;BMP280;25735;48.122;11.422;2023-02-04T12:40:34;96782.78;;;6.45
40045;BMP280;25735;48.122;11.422;2023-02-04T12:42:59;96774.47;;;6.37
40045;BMP280;25735;48.122;11.422;2023-02-04T12:45:25;96774.88;;;6.58
40045;BMP280;25735;48.122;11.422;2023-02-04T12:47:50;96789.94;;;6.33
40045;BMP280;25735;48.122;11.422;2023-02-04T12:50:17;96788.31;;;6.39
40045;BMP280;25735;48.122;11.422;2023-02-04T12:52:48;96788.91;;;6.27
40045;BMP280;25735;48.122;11.422;2023-02-04T12:55:13;96774.16;;;6.09
40045;BMP280;25735;48.122;11.422;2023-02-04T12:57:38;96779.63;;;6.28
40045;BMP280;25735;48.122;11.422;2023-02-04T13:00:04;96779.28;;;6.48
40045;BMP280;25735;48.122;11.422;2023-02-04T13:02:29;96785.09;;;6.70
40045;BMP280;25735;48.122;11.422;2023-02-04T13:04:55;96771.03;;;6.78
40045;BMP280;25735;48.122;11.422;2023-02-04T13:07:20;96773.19;;;7.66
40045;BMP280;25735;48.122;11.422;2023-02-04T13:09:45;96767.38;;;8.50
40045;BMP280;25735;48.122;11.422;2023-02-04T13:12:11;96764.25;;;8.20
40045;BMP280;25735;48.122;11.422;2023-02-04T13:14:38;96767.28;;;7.87
40045;BMP280;25735;48.122;11.422;2023-02-04T13:17:04;96762.16;;;7.38
40045;BMP280;25735;48.122;11.422;2023-02-04T13:19:29;96767.50;;;7.42
40045;BMP280;25735;48.122;11.422;2023-02-04T13:21:56;96771.84;;;6.98
40045;BMP280;25735;48.122;11.422;2023-02-04T13:24:21;96780.16;;;7.06
40045;BMP280;25735;48.122;11.422;2023-02-04T13:26:47;96766.75;;;7.22
40045;BMP280;25735;48.122;11.422;2023-02-04T13:29:12;96775.72;;;6.97
40045;BMP280;25735;48.122;11.422;2023-02-04T13:31:37;96789.56;;;6.57
40045;BMP280;25735;48.122;11.422;2023-02-04T13:34:02;96797.13;;;6.17
40045;BMP280;25735;48.122;11.422;2023-02-04T13:36:28;96797.81;;;5.72
40045;BMP280;25735;48.122;11.422;2023-02-04T13:38:54;96806.88;;;5.55
40045;BMP280;25735;48.122;11.422;2023-02-04T13:41:20;96812.03;;;5.43
40045;BMP280;25735;48.122;11.422;2023-02-04T13:43:45;96815.84;;;5.45
40045;BMP280;25735;48.122;11.422;2023-02-04T13:46:10;96818.88;;;5.47
40045;BMP280;25735;48.122;11.422;2023-02-04T13:48:36;96823.47;;;5.50
40045;BMP280;25735;48.122;11.422;2023-02-04T13:51:01;96817.03;;;5.41
40045;BMP280;25735;48.122;11.422;2023-02-04T13:53:26;96824.66;;;5.49
40045;BMP280;25735;48.122;11.422;2023-02-04T13:55:56;96833.84;;;5.55
40045;BMP280;25735;48.122;11.422;2023-02-04T13:58:22;96826.00;;;5.93
40045;BMP280;25735;48.122;11.422;2023-02-04T14:00:47;96845.81;;;5.84
40045;BMP280;25735;48.122;11.422;2023-02-04T14:03:12;96838.97;;;5.76
40045;BMP280;25735;48.122;11.422;2023-02-04T14:05:37;96844.28;;;5.83
40045;BMP280;25735;48.122;11.422;2023-02-04T14:08:03;96848.53;;;5.47
40045;BMP280;25735;48.122;11.422;2023-02-04T14:10:28;96851.44;;;5.30
40045;BMP280;25735;48.122;11.422;2023-02-04T14:12:53;96852.97;;;5.64
40045;BMP280;25735;48.122;11.422;2023-02-04T14:15:19;96842.88;;;5.68
40045;BMP280;25735;48.122;11.422;2023-02-04T14:17:44;96851.16;;;5.54